createdAt,value
2019-03-31T00:00:14.776Z,42.35
2019-03-31T00:01:14.768Z,42.23
2019-03-31T00:02:14.764Z,42.23
2019-03-31T00:03:14.758Z,42.19
2019-03-31T00:04:14.752Z,42.25
2019-03-31T00:05:14.745Z,42.23
2019-03-31T00:06:14.737Z,42.43
2019-03-31T00:07:14.731Z,42.41
2019-03-31T00:08:14.722Z,42.42
2019-03-31T00:09:14.715Z,42.27
2019-03-31T00:10:14.711Z,42.34
2019-03-31T00:11:14.702Z,42.19
2019-03-31T00:12:14.696Z,42.25
2019-03-31T00:13:14.690Z,42.30
2019-03-31T00:14:14.732Z,42.31
2019-03-31T00:15:14.677Z,42.24
2019-03-31T00:16:14.670Z,42.43
2019-03-31T00:17:14.669Z,42.28
2019-03-31T00:18:14.656Z,42.25
2019-03-31T00:19:14.653Z,42.32
2019-03-31T00:20:14.647Z,42.20
2019-03-31T00:21:14.642Z,42.23
2019-03-31T00:22:14.640Z,42.23
2019-03-31T00:23:14.627Z,42.42
2019-03-31T00:24:14.622Z,42.27
2019-03-31T00:25:14.618Z,42.28
2019-03-31T00:26:14.613Z,42.22
2019-03-31T00:27:14.607Z,42.50
2019-03-31T00:28:14.599Z,42.23
2019-03-31T00:29:14.593Z,42.31
2019-03-31T00:30:14.586Z,42.33
2019-03-31T00:31:22.138Z,42.37
2019-03-31T00:33:42.294Z,42.30
2019-03-31T00:34:42.288Z,42.26
2019-03-31T00:35:42.285Z,42.39
2019-03-31T00:36:42.286Z,42.47
2019-03-31T00:37:42.276Z,42.28
2019-03-31T00:38:42.264Z,42.30
2019-03-31T00:39:42.254Z,42.27
2019-03-31T00:40:42.246Z,42.26
2019-03-31T00:41:42.240Z,42.20
2019-03-31T00:42:42.234Z,42.22
2019-03-31T00:44:42.222Z,42.41
2019-03-31T00:45:42.272Z,42.22
2019-03-31T00:46:42.208Z,42.31
2019-03-31T00:47:42.202Z,42.27
2019-03-31T00:48:42.194Z,42.28
2019-03-31T00:49:42.192Z,42.32
2019-03-31T00:50:42.182Z,42.27
2019-03-31T00:51:42.246Z,42.32
2019-03-31T00:52:42.170Z,42.30
2019-03-31T00:53:42.164Z,42.30
2019-03-31T00:54:42.156Z,41.97
2019-03-31T00:55:42.154Z,41.98
2019-03-31T00:56:42.144Z,42.13
2019-03-31T00:57:42.136Z,42.10
2019-03-31T00:58:42.130Z,42.00
2019-03-31T00:59:42.124Z,42.05
2019-03-31T01:00:42.123Z,42.05
2019-03-31T01:01:42.112Z,42.05
2019-03-31T01:02:42.106Z,42.19
2019-03-31T01:03:42.099Z,42.16
2019-03-31T01:04:42.092Z,42.13
2019-03-31T01:05:42.088Z,42.15
2019-03-31T01:06:42.080Z,42.08
2019-03-31T01:07:42.072Z,42.12
2019-03-31T01:08:42.068Z,42.19
2019-03-31T01:09:42.063Z,42.50
2019-03-31T01:10:42.060Z,42.16
2019-03-31T01:11:42.051Z,42.09
2019-03-31T01:12:42.050Z,42.22
2019-03-31T01:13:42.036Z,42.08
2019-03-31T01:14:42.031Z,42.09
2019-03-31T01:15:42.025Z,42.23
2019-03-31T01:16:42.015Z,42.25
2019-03-31T01:17:42.011Z,42.05
2019-03-31T01:18:42.000Z,42.12
2019-03-31T01:19:41.995Z,42.12
2019-03-31T01:20:42.073Z,42.17
2019-03-31T01:21:41.986Z,42.31
2019-03-31T01:22:41.975Z,42.36
2019-03-31T01:23:41.966Z,42.33
2019-03-31T01:24:41.957Z,42.42
2019-03-31T01:25:41.950Z,42.33
2019-03-31T01:26:41.950Z,42.35
2019-03-31T01:27:41.939Z,42.32
2019-03-31T01:28:41.932Z,42.28
2019-03-31T01:29:41.930Z,42.32
2019-03-31T01:30:41.920Z,42.30
2019-03-31T01:31:50.070Z,42.35
2019-03-31T01:34:09.677Z,42.45
2019-03-31T01:35:09.622Z,42.34
2019-03-31T01:36:09.618Z,42.42
2019-03-31T01:37:09.609Z,42.54
2019-03-31T01:38:09.609Z,42.40
2019-03-31T01:39:09.600Z,42.43
2019-03-31T01:40:09.592Z,42.36
2019-03-31T01:41:09.589Z,42.38
2019-03-31T01:42:09.579Z,42.29
2019-03-31T01:43:09.572Z,42.43
2019-03-31T01:44:09.565Z,42.47
2019-03-31T01:45:09.564Z,42.46
2019-03-31T01:46:09.550Z,42.38
2019-03-31T01:47:09.542Z,42.34
2019-03-31T01:48:09.534Z,42.34
2019-03-31T01:49:09.529Z,42.41
2019-03-31T01:50:09.572Z,42.43
2019-03-31T01:51:09.515Z,42.44
2019-03-31T01:52:09.509Z,42.36
2019-03-31T01:53:09.505Z,42.40
2019-03-31T01:54:09.494Z,42.43
2019-03-31T01:55:09.490Z,42.51
2019-03-31T01:56:09.484Z,42.41
2019-03-31T01:57:09.475Z,42.47
2019-03-31T01:58:09.470Z,42.57
2019-03-31T01:59:09.465Z,42.40
2019-03-31T02:00:09.460Z,42.66
2019-03-31T02:01:09.450Z,42.41
2019-03-31T02:02:09.446Z,42.39
2019-03-31T02:03:09.434Z,42.39
2019-03-31T02:04:09.428Z,42.50
2019-03-31T02:05:09.424Z,42.39
2019-03-31T02:06:09.467Z,42.42
2019-03-31T02:07:09.408Z,42.42
2019-03-31T02:08:09.403Z,42.42
2019-03-31T02:09:09.393Z,42.43
2019-03-31T02:10:09.388Z,42.50
2019-03-31T02:11:09.386Z,42.46
2019-03-31T02:12:09.377Z,42.46
2019-03-31T02:13:09.374Z,42.53
2019-03-31T02:14:09.365Z,42.50
2019-03-31T02:15:09.358Z,42.41
2019-03-31T02:16:09.352Z,42.44
2019-03-31T02:17:09.344Z,42.42
2019-03-31T02:18:09.337Z,42.64
2019-03-31T02:19:09.331Z,42.46
2019-03-31T02:20:09.324Z,42.69
2019-03-31T02:21:09.318Z,42.52
2019-03-31T02:22:09.330Z,42.45
2019-03-31T02:23:09.323Z,42.56
2019-03-31T02:24:09.317Z,42.48
2019-03-31T02:25:09.312Z,42.45
2019-03-31T02:26:09.305Z,42.43
2019-03-31T02:27:09.300Z,42.48
2019-03-31T02:28:09.293Z,42.46
2019-03-31T02:29:09.286Z,42.49
2019-03-31T02:30:09.288Z,42.94
2019-03-31T02:31:09.275Z,42.44
2019-03-31T02:32:23.266Z,42.42
2019-03-31T02:34:36.986Z,42.57
2019-03-31T02:35:36.978Z,42.31
2019-03-31T02:36:36.972Z,42.24
2019-03-31T02:37:37.020Z,42.19
2019-03-31T02:38:36.974Z,42.22
2019-03-31T02:39:36.968Z,42.28
2019-03-31T02:40:36.960Z,42.31
2019-03-31T02:41:36.954Z,42.24
2019-03-31T02:42:36.951Z,42.27
2019-03-31T02:43:36.943Z,42.35
2019-03-31T02:44:36.952Z,42.18
2019-03-31T02:45:36.930Z,42.16
2019-03-31T02:46:36.927Z,42.32
2019-03-31T02:47:36.918Z,42.20
2019-03-31T02:48:36.911Z,42.17
2019-03-31T02:49:36.908Z,42.17
2019-03-31T02:50:36.913Z,42.20
2019-03-31T02:51:36.890Z,42.15
2019-03-31T02:52:36.884Z,42.17
2019-03-31T02:53:36.880Z,42.22
2019-03-31T02:54:36.872Z,42.28
2019-03-31T02:55:36.865Z,42.15
2019-03-31T02:56:36.859Z,42.20
2019-03-31T02:57:36.863Z,42.23
2019-03-31T02:58:36.846Z,42.22
2019-03-31T02:59:36.837Z,42.40
2019-03-31T03:00:36.850Z,42.31
2019-03-31T03:01:36.844Z,42.50
2019-03-31T03:02:41.950Z,42.60
2019-03-31T03:03:36.830Z,42.58
2019-03-31T03:04:36.825Z,42.59
2019-03-31T03:05:36.816Z,42.47
2019-03-31T03:06:36.828Z,42.51
2019-03-31T03:07:36.814Z,42.51
2019-03-31T03:08:36.792Z,42.61
2019-03-31T03:09:36.836Z,42.46
2019-03-31T03:10:36.786Z,42.44
2019-03-31T03:11:36.772Z,42.51
2019-03-31T03:12:36.768Z,42.46
2019-03-31T03:13:36.756Z,42.43
2019-03-31T03:14:36.759Z,42.61
2019-03-31T03:15:36.745Z,42.39
2019-03-31T03:16:36.739Z,42.54
2019-03-31T03:17:36.731Z,42.57
2019-03-31T03:18:36.726Z,42.51
2019-03-31T03:19:36.726Z,42.47
2019-03-31T03:20:36.711Z,42.49
2019-03-31T03:21:36.703Z,42.50
2019-03-31T03:22:36.701Z,42.56
2019-03-31T03:23:36.706Z,42.52
2019-03-31T03:24:36.687Z,42.58
2019-03-31T03:25:36.681Z,42.51
2019-03-31T03:26:36.676Z,42.51
2019-03-31T03:27:36.667Z,42.56
2019-03-31T03:28:36.661Z,42.47
2019-03-31T03:29:36.659Z,42.47
2019-03-31T03:30:36.860Z,42.49
2019-03-31T03:31:36.645Z,42.49
2019-03-31T03:32:36.655Z,42.50
2019-03-31T03:33:36.634Z,42.48
2019-03-31T03:34:36.644Z,42.56
2019-03-31T03:35:36.618Z,42.48
2019-03-31T03:36:36.613Z,42.42
2019-03-31T03:37:36.605Z,42.51
2019-03-31T03:38:36.595Z,42.63
2019-03-31T03:39:36.592Z,42.53
2019-03-31T03:40:36.583Z,42.59
2019-03-31T03:41:36.579Z,42.53
2019-03-31T03:42:36.604Z,42.49
2019-03-31T03:43:54.270Z,42.50
2019-03-31T03:46:04.322Z,42.68
2019-03-31T03:47:04.317Z,42.55
2019-03-31T03:48:04.309Z,42.61
2019-03-31T03:49:04.358Z,42.59
2019-03-31T03:50:04.295Z,42.71
2019-03-31T03:51:04.294Z,42.56
2019-03-31T03:52:04.282Z,42.56
2019-03-31T03:53:04.279Z,42.51
2019-03-31T03:54:04.267Z,42.59
2019-03-31T03:55:04.262Z,42.53
2019-03-31T03:56:04.253Z,42.53
2019-03-31T03:57:04.253Z,42.60
2019-03-31T03:58:04.242Z,42.53
2019-03-31T03:59:04.237Z,42.69
2019-03-31T04:00:04.229Z,42.59
2019-03-31T04:01:04.220Z,42.58
2019-03-31T04:02:04.216Z,42.59
2019-03-31T04:03:04.214Z,42.65
2019-03-31T04:04:04.203Z,42.66
2019-03-31T04:05:04.196Z,42.56
2019-03-31T04:06:04.190Z,42.57
2019-03-31T04:07:04.183Z,42.53
2019-03-31T04:08:04.173Z,42.62
2019-03-31T04:09:04.167Z,42.56
2019-03-31T04:10:04.162Z,42.60
2019-03-31T04:11:04.158Z,42.63
2019-03-31T04:12:04.147Z,42.54
2019-03-31T04:13:04.141Z,42.61
2019-03-31T04:14:04.140Z,42.59
2019-03-31T04:15:04.142Z,42.52
2019-03-31T04:16:04.121Z,42.58
2019-03-31T04:17:04.118Z,42.58
2019-03-31T04:18:04.109Z,42.62
2019-03-31T04:19:04.101Z,42.60
2019-03-31T04:20:04.094Z,42.59
2019-03-31T04:21:04.087Z,42.57
2019-03-31T04:22:04.080Z,42.58
2019-03-31T04:23:04.077Z,42.59
2019-03-31T04:24:04.082Z,42.63
2019-03-31T04:25:04.082Z,42.56
2019-03-31T04:26:04.070Z,42.73
2019-03-31T04:27:04.061Z,42.56
2019-03-31T04:28:04.054Z,42.63
2019-03-31T04:29:04.052Z,42.57
2019-03-31T04:30:04.043Z,42.60
2019-03-31T04:31:04.034Z,42.62
2019-03-31T04:32:04.030Z,42.61
2019-03-31T04:33:04.025Z,42.33
2019-03-31T04:34:04.014Z,42.36
2019-03-31T04:35:04.004Z,42.36
2019-03-31T04:36:04.000Z,42.30
2019-03-31T04:37:03.996Z,42.33
2019-03-31T04:38:03.984Z,42.43
2019-03-31T04:39:03.996Z,42.37
2019-03-31T04:40:03.979Z,42.35
2019-03-31T04:41:03.967Z,42.49
2019-03-31T04:42:03.987Z,42.66
2019-03-31T04:43:03.983Z,42.62
2019-03-31T04:44:03.970Z,42.59
2019-03-31T04:45:03.966Z,42.66
2019-03-31T04:46:03.960Z,42.61
2019-03-31T04:47:03.953Z,42.64
2019-03-31T04:48:03.946Z,42.62
2019-03-31T04:49:03.943Z,42.61
2019-03-31T04:50:03.932Z,42.67
2019-03-31T04:51:03.923Z,42.61
2019-03-31T04:52:03.921Z,42.61
2019-03-31T04:53:03.913Z,42.53
2019-03-31T04:54:03.907Z,42.54
2019-03-31T04:55:03.904Z,42.53
2019-03-31T04:56:03.899Z,42.65
2019-03-31T04:57:04.667Z,42.64
2019-03-31T04:58:03.880Z,42.59
2019-03-31T04:59:03.877Z,42.71
2019-03-31T05:00:03.870Z,42.66
2019-03-31T05:01:03.860Z,42.77
2019-03-31T05:02:03.855Z,42.77
2019-03-31T05:03:03.846Z,42.59
2019-03-31T05:04:05.378Z,42.57
2019-03-31T05:05:03.837Z,42.62
2019-03-31T05:06:03.828Z,42.67
2019-03-31T05:07:03.818Z,42.65
2019-03-31T05:08:03.808Z,42.41
2019-03-31T05:09:03.803Z,42.43
2019-03-31T05:10:03.800Z,42.49
2019-03-31T05:11:03.793Z,42.39
2019-03-31T05:12:03.788Z,42.35
2019-03-31T05:13:03.779Z,42.46
2019-03-31T05:14:03.778Z,42.30
2019-03-31T05:15:03.774Z,42.33
2019-03-31T05:16:03.763Z,42.33
2019-03-31T05:17:03.754Z,42.38
2019-03-31T05:18:03.756Z,42.30
2019-03-31T05:19:03.742Z,42.34
2019-03-31T05:20:03.737Z,42.48
2019-03-31T05:21:03.735Z,42.31
2019-03-31T05:22:03.726Z,42.53
2019-03-31T05:23:03.720Z,42.65
2019-03-31T05:24:03.717Z,42.59
2019-03-31T05:25:03.703Z,42.55
2019-03-31T05:26:03.696Z,42.56
2019-03-31T05:27:03.687Z,42.51
2019-03-31T05:28:03.684Z,42.70
2019-03-31T05:29:03.681Z,42.71
2019-03-31T05:30:03.674Z,42.61
2019-03-31T05:31:03.662Z,42.64
2019-03-31T05:32:03.664Z,42.62
2019-03-31T05:33:03.651Z,42.53
2019-03-31T05:34:18.053Z,42.46
2019-03-31T05:36:31.358Z,42.79
2019-03-31T05:37:31.351Z,42.56
2019-03-31T05:38:31.346Z,42.47
2019-03-31T05:39:31.340Z,42.53
2019-03-31T05:40:31.328Z,42.48
2019-03-31T05:41:31.325Z,42.44
2019-03-31T05:42:31.318Z,42.75
2019-03-31T05:43:31.313Z,42.50
2019-03-31T05:44:31.305Z,42.53
2019-03-31T05:45:31.302Z,42.48
2019-03-31T05:46:31.294Z,42.54
2019-03-31T05:47:31.287Z,42.36
2019-03-31T05:48:31.284Z,42.54
2019-03-31T05:49:31.278Z,42.37
2019-03-31T05:50:31.267Z,42.44
2019-03-31T05:51:31.263Z,42.29
2019-03-31T05:52:31.258Z,42.31
2019-03-31T05:53:31.252Z,42.27
2019-03-31T05:54:31.247Z,42.26
2019-03-31T05:55:31.238Z,42.26
2019-03-31T05:56:31.231Z,42.37
2019-03-31T05:57:31.227Z,42.27
2019-03-31T05:58:31.221Z,42.21
2019-03-31T05:59:31.212Z,42.22
2019-03-31T06:00:31.207Z,42.18
2019-03-31T06:01:31.201Z,42.13
2019-03-31T06:02:31.193Z,42.13
2019-03-31T06:03:31.190Z,42.20
2019-03-31T06:04:33.255Z,42.06
2019-03-31T06:05:31.180Z,42.22
2019-03-31T06:06:31.170Z,42.11
2019-03-31T06:07:31.162Z,42.17
2019-03-31T06:08:31.158Z,42.20
2019-03-31T06:09:31.173Z,41.98
2019-03-31T06:10:31.467Z,42.10
2019-03-31T06:11:31.163Z,41.99
2019-03-31T06:12:31.156Z,41.95
2019-03-31T06:13:31.150Z,42.22
2019-03-31T06:14:31.142Z,42.08
2019-03-31T06:15:31.134Z,41.82
2019-03-31T06:16:31.132Z,41.97
2019-03-31T06:17:31.120Z,41.87
2019-03-31T06:18:31.119Z,41.95
2019-03-31T06:19:31.115Z,41.88
2019-03-31T06:20:31.106Z,41.75
2019-03-31T06:21:31.103Z,41.89
2019-03-31T06:22:31.093Z,41.75
2019-03-31T06:23:31.084Z,41.70
2019-03-31T06:24:31.079Z,41.71
2019-03-31T06:25:31.083Z,41.89
2019-03-31T06:26:31.116Z,41.84
2019-03-31T06:27:31.058Z,41.69
2019-03-31T06:28:31.052Z,41.79
2019-03-31T06:29:31.053Z,41.63
2019-03-31T06:30:31.038Z,41.61
2019-03-31T06:31:31.035Z,41.69
2019-03-31T06:32:31.031Z,41.60
2019-03-31T06:33:31.019Z,41.62
2019-03-31T06:34:31.015Z,41.60
2019-03-31T06:35:31.011Z,41.67
2019-03-31T06:36:31.000Z,41.63
2019-03-31T06:37:30.996Z,41.65
2019-03-31T06:38:30.990Z,41.50
2019-03-31T06:39:34.126Z,41.59
2019-03-31T06:40:30.978Z,41.57
2019-03-31T06:41:30.970Z,41.77
2019-03-31T06:42:30.963Z,41.69
2019-03-31T06:43:30.958Z,41.65
2019-03-31T06:44:30.953Z,41.65
2019-03-31T06:45:30.948Z,41.48
2019-03-31T06:46:30.940Z,41.50
2019-03-31T06:47:30.935Z,41.57
2019-03-31T06:48:30.927Z,41.56
2019-03-31T06:49:30.920Z,41.49
2019-03-31T06:50:30.912Z,41.69
2019-03-31T06:51:30.907Z,41.57
2019-03-31T06:52:30.898Z,41.64
2019-03-31T06:53:30.896Z,41.63
2019-03-31T06:54:30.886Z,41.52
2019-03-31T06:55:30.919Z,41.73
2019-03-31T06:56:30.872Z,41.55
2019-03-31T06:57:30.867Z,41.39
2019-03-31T06:58:30.863Z,41.38
2019-03-31T06:59:30.862Z,41.45
2019-03-31T07:00:30.847Z,41.52
2019-03-31T07:01:30.840Z,41.50
2019-03-31T07:02:30.837Z,41.45
2019-03-31T07:03:30.829Z,41.53
2019-03-31T07:04:30.822Z,41.32
2019-03-31T07:05:30.813Z,41.34
2019-03-31T07:06:30.811Z,41.51
2019-03-31T07:07:30.803Z,41.41
2019-03-31T07:08:30.797Z,41.30
2019-03-31T07:09:30.798Z,41.54
2019-03-31T07:10:30.784Z,41.78
2019-03-31T07:11:30.775Z,41.54
2019-03-31T07:12:30.768Z,41.39
2019-03-31T07:13:30.765Z,41.29
2019-03-31T07:14:30.757Z,41.38
2019-03-31T07:15:30.751Z,41.16
2019-03-31T07:16:30.744Z,41.20
2019-03-31T07:17:30.737Z,41.23
2019-03-31T07:18:30.731Z,41.39
2019-03-31T07:19:30.729Z,41.38
2019-03-31T07:20:30.719Z,41.27
2019-03-31T07:21:30.716Z,41.56
2019-03-31T07:22:30.707Z,41.69
2019-03-31T07:23:30.703Z,41.68
2019-03-31T07:24:30.696Z,41.71
2019-03-31T07:25:30.687Z,41.70
2019-03-31T07:26:30.682Z,41.70
2019-03-31T07:27:30.676Z,41.67
2019-03-31T07:28:30.671Z,41.53
2019-03-31T07:29:30.662Z,41.66
2019-03-31T07:30:30.655Z,41.88
2019-03-31T07:31:30.649Z,41.67
2019-03-31T07:32:30.645Z,41.59
2019-03-31T07:33:30.648Z,41.65
2019-03-31T07:34:30.634Z,41.60
2019-03-31T07:35:30.626Z,41.61
2019-03-31T07:36:30.620Z,41.49
2019-03-31T07:37:30.614Z,41.80
2019-03-31T07:38:38.686Z,41.62
2019-03-31T07:41:11.741Z,41.71
2019-03-31T07:43:25.086Z,41.62
2019-03-31T07:44:25.081Z,41.60
2019-03-31T07:45:25.074Z,41.58
2019-03-31T07:46:25.067Z,41.53
2019-03-31T07:47:25.065Z,41.38
2019-03-31T07:48:25.057Z,41.50
2019-03-31T07:49:25.055Z,41.34
2019-03-31T07:50:28.183Z,41.53
2019-03-31T07:51:25.033Z,41.36
2019-03-31T07:52:25.026Z,41.41
2019-03-31T07:53:25.020Z,41.38
2019-03-31T07:54:25.013Z,41.45
2019-03-31T07:55:25.005Z,41.68
2019-03-31T07:56:25.014Z,41.87
2019-03-31T07:57:25.011Z,41.72
2019-03-31T07:58:25.003Z,41.62
2019-03-31T07:59:24.997Z,41.75
2019-03-31T08:00:24.990Z,41.61
2019-03-31T08:01:24.984Z,41.66
2019-03-31T08:02:24.979Z,41.46
2019-03-31T08:03:24.973Z,41.51
2019-03-31T08:04:24.966Z,41.44
2019-03-31T08:05:32.987Z,41.54
2019-03-31T08:07:52.682Z,41.64
2019-03-31T08:08:53.509Z,41.70
2019-03-31T08:09:52.671Z,41.50
2019-03-31T08:10:52.664Z,41.21
2019-03-31T08:11:52.660Z,41.28
2019-03-31T08:12:52.652Z,41.12
2019-03-31T08:13:55.241Z,40.80
2019-03-31T08:14:52.637Z,40.93
2019-03-31T08:15:52.632Z,40.59
2019-03-31T08:16:52.625Z,40.83
2019-03-31T08:17:52.618Z,41.43
2019-03-31T08:18:52.616Z,42.06
2019-03-31T08:19:52.603Z,41.92
2019-03-31T08:20:52.600Z,41.89
2019-03-31T08:21:52.592Z,41.81
2019-03-31T08:22:52.586Z,41.61
2019-03-31T08:23:52.578Z,41.56
2019-03-31T08:24:52.573Z,41.47
2019-03-31T08:25:52.564Z,41.41
2019-03-31T08:26:52.560Z,41.30
2019-03-31T08:27:52.579Z,41.30
2019-03-31T08:28:52.569Z,41.10
2019-03-31T08:30:00.535Z,41.03
2019-03-31T08:32:20.280Z,41.31
2019-03-31T08:33:20.274Z,41.30
2019-03-31T08:34:20.263Z,41.25
2019-03-31T08:35:20.260Z,41.02
2019-03-31T08:36:20.255Z,40.85
2019-03-31T08:37:20.247Z,40.95
2019-03-31T08:38:20.241Z,40.64
2019-03-31T08:39:20.234Z,40.90
2019-03-31T08:40:20.224Z,40.56
2019-03-31T08:41:20.221Z,40.58
2019-03-31T08:42:20.214Z,40.51
2019-03-31T08:43:20.207Z,40.50
2019-03-31T08:44:20.198Z,40.49
2019-03-31T08:45:20.195Z,40.64
2019-03-31T08:46:20.189Z,40.59
2019-03-31T08:47:20.185Z,40.43
2019-03-31T08:48:20.179Z,40.49
2019-03-31T08:49:20.174Z,40.28
2019-03-31T08:50:20.166Z,40.48
2019-03-31T08:51:20.160Z,40.31
2019-03-31T08:52:20.155Z,40.40
2019-03-31T08:53:20.150Z,40.47
2019-03-31T08:54:20.144Z,40.14
2019-03-31T08:55:20.139Z,40.15
2019-03-31T08:56:20.133Z,40.23
2019-03-31T08:57:20.128Z,40.12
2019-03-31T08:58:20.324Z,40.29
2019-03-31T08:59:20.113Z,40.22
2019-03-31T09:00:20.132Z,40.03
2019-03-31T09:01:20.125Z,40.00
2019-03-31T09:02:20.121Z,40.27
2019-03-31T09:03:20.113Z,40.29
2019-03-31T09:04:20.105Z,40.09
2019-03-31T09:05:20.101Z,40.18
2019-03-31T09:06:20.098Z,40.72
2019-03-31T09:07:20.087Z,40.51
2019-03-31T09:08:20.079Z,40.62
2019-03-31T09:10:20.069Z,40.93
2019-03-31T09:11:20.069Z,41.07
2019-03-31T09:12:20.055Z,41.15
2019-03-31T09:13:20.052Z,41.41
2019-03-31T09:14:20.047Z,41.50
2019-03-31T09:15:20.039Z,41.65
2019-03-31T09:16:20.036Z,41.97
2019-03-31T09:17:20.032Z,41.90
2019-03-31T09:18:20.027Z,42.06
2019-03-31T09:19:20.020Z,42.03
2019-03-31T09:20:20.010Z,42.18
2019-03-31T09:21:20.003Z,42.25
2019-03-31T09:22:19.998Z,42.35
2019-03-31T09:23:19.992Z,42.40
2019-03-31T09:24:19.985Z,42.56
2019-03-31T09:25:19.981Z,42.57
2019-03-31T09:26:19.977Z,43.08
2019-03-31T09:27:19.970Z,43.07
2019-03-31T09:28:19.987Z,42.88
2019-03-31T09:29:19.980Z,42.88
2019-03-31T09:30:19.972Z,43.27
2019-03-31T09:31:19.970Z,43.08
2019-03-31T09:32:19.963Z,42.90
2019-03-31T09:33:19.956Z,42.90
2019-03-31T09:34:19.950Z,42.93
2019-03-31T09:35:19.946Z,42.67
2019-03-31T09:36:19.940Z,42.68
2019-03-31T09:37:19.940Z,42.59
2019-03-31T09:38:19.930Z,42.47
2019-03-31T09:40:47.648Z,42.37
2019-03-31T09:41:47.644Z,42.34
2019-03-31T09:42:47.639Z,42.05
2019-03-31T09:43:47.633Z,41.95
2019-03-31T09:44:47.627Z,41.77
2019-03-31T09:45:47.618Z,41.55
2019-03-31T09:46:47.616Z,41.44
2019-03-31T09:47:47.633Z,41.32
2019-03-31T09:48:47.601Z,41.22
2019-03-31T09:49:47.594Z,41.20
2019-03-31T09:50:47.587Z,41.01
2019-03-31T09:51:47.581Z,40.84
2019-03-31T09:52:47.575Z,40.82
2019-03-31T09:53:47.571Z,41.15
2019-03-31T09:54:47.562Z,40.84
2019-03-31T09:55:47.555Z,40.90
2019-03-31T09:56:47.549Z,40.72
2019-03-31T09:57:47.544Z,40.58
2019-03-31T09:58:47.564Z,40.64
2019-03-31T09:59:47.555Z,40.66
2019-03-31T10:00:47.552Z,40.56
2019-03-31T10:01:47.543Z,40.65
2019-03-31T10:02:47.537Z,40.79
2019-03-31T10:03:47.532Z,40.88
2019-03-31T10:04:47.525Z,40.82
2019-03-31T10:09:42.954Z,40.91
2019-03-31T10:10:42.998Z,41.07
2019-03-31T10:11:42.940Z,41.14
2019-03-31T10:12:42.936Z,41.02
2019-03-31T10:13:42.931Z,41.44
2019-03-31T10:14:42.925Z,41.72
2019-03-31T10:15:42.950Z,41.50
2019-03-31T10:16:42.942Z,41.59
2019-03-31T10:17:42.938Z,41.71
2019-03-31T10:18:42.932Z,41.82
2019-03-31T10:19:42.927Z,41.78
2019-03-31T10:20:42.926Z,41.74
2019-03-31T10:21:42.913Z,41.71
2019-03-31T10:22:42.906Z,41.63
2019-03-31T10:23:42.900Z,41.65
2019-03-31T10:24:42.891Z,41.80
2019-03-31T10:25:42.887Z,41.75
2019-03-31T10:26:42.933Z,41.91
2019-03-31T10:27:42.878Z,42.05
2019-03-31T10:28:42.870Z,42.07
2019-03-31T10:29:42.862Z,42.10
2019-03-31T10:30:42.856Z,42.39
2019-03-31T10:31:42.850Z,42.50
2019-03-31T10:32:42.847Z,42.62
2019-03-31T10:33:42.842Z,42.74
2019-03-31T10:34:42.835Z,42.95
2019-03-31T10:35:42.829Z,43.17
2019-03-31T10:36:44.763Z,43.37
2019-03-31T10:37:42.818Z,43.64
2019-03-31T10:38:42.816Z,43.67
2019-03-31T10:39:42.806Z,43.99
2019-03-31T10:40:42.811Z,43.93
2019-03-31T10:41:42.796Z,43.89
2019-03-31T10:42:42.788Z,43.95
2019-03-31T10:43:42.784Z,43.89
2019-03-31T10:44:42.776Z,43.99
2019-03-31T10:45:42.768Z,44.29
2019-03-31T10:46:42.766Z,44.21
2019-03-31T10:47:42.762Z,44.14
2019-03-31T10:48:42.751Z,43.65
2019-03-31T10:49:42.751Z,43.37
2019-03-31T10:51:42.734Z,43.02
2019-03-31T10:52:42.728Z,43.25
2019-03-31T10:53:42.745Z,42.83
2019-03-31T10:54:42.735Z,42.62
2019-03-31T10:55:42.730Z,42.69
2019-03-31T10:56:42.725Z,42.61
2019-03-31T10:57:42.722Z,42.64
2019-03-31T10:58:42.714Z,42.55
2019-03-31T10:59:42.708Z,42.50
2019-03-31T11:00:44.407Z,42.52
2019-03-31T11:01:42.699Z,42.79
2019-03-31T11:02:42.692Z,42.50
2019-03-31T11:03:42.690Z,42.71
2019-03-31T11:04:42.679Z,42.62
2019-03-31T11:05:42.673Z,42.37
2019-03-31T11:06:42.666Z,42.39
2019-03-31T11:09:10.381Z,42.42
2019-03-31T11:10:10.381Z,42.37
2019-03-31T11:11:10.368Z,42.61
2019-03-31T11:12:10.361Z,42.34
2019-03-31T11:13:10.360Z,42.65
2019-03-31T11:14:10.349Z,42.33
2019-03-31T11:15:10.342Z,42.53
2019-03-31T11:16:10.333Z,42.52
2019-03-31T11:17:10.327Z,42.65
2019-03-31T11:18:10.322Z,42.35
2019-03-31T11:19:10.316Z,42.50
2019-03-31T11:20:10.308Z,42.53
2019-03-31T11:21:10.303Z,42.53
2019-03-31T11:22:10.299Z,42.50
2019-03-31T11:23:10.291Z,42.40
2019-03-31T11:24:10.287Z,42.77
2019-03-31T11:25:20.609Z,43.07
2019-03-31T11:27:37.518Z,43.07
2019-03-31T11:28:37.511Z,43.20
2019-03-31T11:29:37.504Z,43.19
2019-03-31T11:30:37.498Z,43.86
2019-03-31T11:31:37.492Z,42.55
2019-03-31T11:32:37.491Z,42.65
2019-03-31T11:33:37.478Z,42.99
2019-03-31T11:34:37.475Z,42.36
2019-03-31T11:35:37.472Z,42.54
2019-03-31T11:36:37.459Z,42.45
2019-03-31T11:37:37.458Z,42.26
2019-03-31T11:38:37.449Z,42.46
2019-03-31T11:39:37.440Z,42.18
2019-03-31T11:41:37.432Z,42.21
2019-03-31T11:42:37.419Z,42.22
2019-03-31T11:43:37.423Z,42.19
2019-03-31T11:44:37.407Z,42.29
2019-03-31T11:45:37.400Z,42.00
2019-03-31T11:46:37.416Z,42.18
2019-03-31T11:47:37.410Z,41.99
2019-03-31T11:48:37.404Z,42.14
2019-03-31T11:49:37.398Z,42.19
2019-03-31T11:50:37.394Z,41.97
2019-03-31T11:51:37.384Z,42.12
2019-03-31T11:52:37.377Z,42.36
2019-03-31T11:53:37.372Z,42.27
2019-03-31T11:54:37.365Z,42.26
2019-03-31T11:55:37.363Z,42.26
2019-03-31T11:56:37.352Z,42.30
2019-03-31T11:57:37.343Z,42.23
2019-03-31T11:58:37.338Z,41.95
2019-03-31T11:59:37.333Z,42.13
2019-03-31T12:00:37.329Z,42.33
2019-03-31T12:01:37.318Z,42.16
2019-03-31T12:02:37.316Z,42.19
2019-03-31T12:03:37.305Z,42.33
2019-03-31T12:04:37.296Z,42.41
2019-03-31T12:05:37.294Z,42.46
2019-03-31T12:08:04.507Z,42.43
2019-03-31T12:09:04.498Z,42.66
2019-03-31T12:10:04.497Z,42.41
2019-03-31T12:11:04.485Z,42.52
2019-03-31T12:12:04.480Z,42.43
2019-03-31T12:13:04.477Z,42.61
2019-03-31T12:14:04.463Z,42.52
2019-03-31T12:15:04.460Z,42.51
2019-03-31T12:16:04.455Z,42.34
2019-03-31T12:17:04.444Z,42.51
2019-03-31T12:18:04.438Z,42.39
2019-03-31T12:19:04.434Z,42.32
2019-03-31T12:20:04.425Z,42.37
2019-03-31T12:21:04.423Z,42.52
2019-03-31T12:22:04.412Z,42.74
2019-03-31T12:23:04.406Z,42.70
2019-03-31T12:24:04.404Z,42.24
2019-03-31T12:25:04.390Z,42.52
2019-03-31T12:26:04.391Z,42.77
2019-03-31T12:27:04.378Z,42.53
2019-03-31T12:28:04.370Z,42.64
2019-03-31T12:29:04.366Z,42.25
2019-03-31T12:30:04.361Z,42.83
2019-03-31T12:31:04.357Z,42.35
2019-03-31T12:32:04.347Z,42.36
2019-03-31T12:33:04.350Z,42.32
2019-03-31T12:34:04.336Z,42.43
2019-03-31T12:35:04.328Z,42.40
2019-03-31T12:36:04.323Z,42.33
2019-03-31T12:37:04.338Z,42.31
2019-03-31T12:38:04.335Z,42.52
2019-03-31T12:39:04.324Z,42.40
2019-03-31T12:40:04.320Z,42.59
2019-03-31T12:41:04.313Z,42.29
2019-03-31T12:42:04.311Z,42.59
2019-03-31T12:43:04.305Z,42.13
2019-03-31T12:44:04.292Z,41.85
2019-03-31T12:45:04.286Z,42.15
2019-03-31T12:46:04.279Z,42.18
2019-03-31T12:47:04.271Z,42.16
2019-03-31T12:48:04.265Z,41.92
2019-03-31T12:49:04.258Z,41.88
2019-03-31T12:50:04.258Z,42.13
2019-03-31T12:51:04.246Z,42.19
2019-03-31T12:52:04.241Z,42.94
2019-03-31T12:53:04.238Z,41.93
2019-03-31T12:54:04.238Z,41.86
2019-03-31T12:55:04.227Z,41.86
2019-03-31T12:56:04.218Z,42.07
2019-03-31T12:57:04.215Z,41.96
2019-03-31T12:58:04.208Z,41.97
2019-03-31T12:59:04.204Z,42.06
2019-03-31T13:00:04.196Z,42.02
2019-03-31T13:01:04.189Z,42.40
2019-03-31T13:02:04.176Z,42.02
2019-03-31T13:03:04.171Z,41.88
2019-03-31T13:04:04.166Z,41.75
2019-03-31T13:05:04.155Z,41.45
2019-03-31T13:06:04.151Z,41.53
2019-03-31T13:07:04.146Z,41.29
2019-03-31T13:08:04.144Z,41.34
2019-03-31T13:09:04.133Z,41.29
2019-03-31T13:10:04.129Z,41.42
2019-03-31T13:11:04.118Z,41.68
2019-03-31T13:12:04.112Z,41.49
2019-03-31T13:13:04.104Z,41.45
2019-03-31T13:14:04.099Z,41.48
2019-03-31T13:15:04.088Z,41.40
2019-03-31T13:16:04.086Z,41.42
2019-03-31T13:17:04.077Z,41.60
2019-03-31T13:18:04.067Z,41.43
2019-03-31T13:19:04.063Z,41.29